Time;durP1;ratioP1;P1;durP2;ratioP2;P2;SDS_P1;SDS_P2;PMS_P1;PMS_P2;Temp;Humidity;BMP_temperature;BMP_pressure;BME280_temperature;BME280_humidity;BME280_pressure;Samples;Min_cycle;Max_cycle;Signal;HPM_P1;HPM_P2
2021/03/02 00:00:06;;;;;;;20.60;11.43;;;5.90;99.90;;;;;;5062282;28;20214;-75
2021/03/02 00:02:33;;;;;;;16.70;10.03;;;5.90;99.90;;;;;;5064833;28;20240;-76
2021/03/02 00:05:01;;;;;;;17.37;10.37;;;5.80;99.90;;;;;;5046428;28;20203;-76
2021/03/02 00:07:27;;;;;;;21.10;11.07;;;5.70;99.90;;;;;;5064367;28;20622;-75
2021/03/02 00:09:54;;;;;;;22.80;11.07;;;5.70;99.90;;;;;;5048176;28;20218;-75
2021/03/02 00:12:26;;;;;;;17.87;10.90;;;5.60;99.90;;;;;;5056871;28;20203;-76
2021/03/02 00:14:52;;;;;;;16.67;9.63;;;5.60;99.90;;;;;;5040128;28;20199;-76
2021/03/02 00:17:32;;;;;;;21.13;11.13;;;5.60;99.90;;;;;;5060803;28;20318;-76
2021/03/02 00:20:09;;;;;;;21.20;10.67;;;5.70;99.90;;;;;;5057313;28;20204;-75
2021/03/02 00:22:51;;;;;;;18.20;10.33;;;5.70;99.90;;;;;;5061116;28;20238;-75
2021/03/02 00:25:18;;;;;;;18.87;10.53;;;5.70;99.90;;;;;;5078954;28;20841;-75
2021/03/02 00:27:45;;;;;;;24.87;10.53;;;5.70;99.90;;;;;;5062959;28;20659;-75
2021/03/02 00:30:15;;;;;;;18.40;10.73;;;5.70;99.90;;;;;;5062367;28;20195;-75
2021/03/02 00:32:45;;;;;;;16.30;9.40;;;5.70;99.90;;;;;;5047268;28;20211;-75
2021/03/02 00:35:12;;;;;;;20.87;11.50;;;5.60;99.90;;;;;;5065056;28;20195;-75
2021/03/02 00:37:39;;;;;;;22.73;10.73;;;5.70;99.90;;;;;;5067930;28;20214;-75
2021/03/02 00:40:07;;;;;;;20.33;10.30;;;5.70;99.90;;;;;;5060266;28;20207;-75
2021/03/02 00:42:49;;;;;;;20.57;10.77;;;5.80;99.90;;;;;;5052218;28;20848;-75
2021/03/02 00:45:15;;;;;;;20.70;10.53;;;5.80;99.90;;;;;;5063952;28;20271;-75
2021/03/02 00:47:42;;;;;;;23.77;11.97;;;5.80;99.90;;;;;;5059053;28;20223;-75
2021/03/02 00:50:10;;;;;;;20.23;10.53;;;5.80;99.90;;;;;;5058319;28;20660;-75
2021/03/02 00:52:37;;;;;;;22.07;11.17;;;5.70;99.90;;;;;;5061970;28;20199;-75
2021/03/02 00:55:05;;;;;;;17.60;10.37;;;5.80;99.90;;;;;;5065626;28;20211;-76
2021/03/02 00:57:31;;;;;;;19.13;9.50;;;5.70;99.90;;;;;;5066369;28;20210;-76
2021/03/02 00:59:58;;;;;;;20.23;10.83;;;5.70;99.90;;;;;;5063484;28;20655;-76
2021/03/02 01:02:24;;;;;;;21.30;10.50;;;5.70;99.90;;;;;;5078938;28;20253;-76
2021/03/02 01:04:51;;;;;;;22.77;11.27;;;5.70;99.90;;;;;;5048010;28;20242;-76
2021/03/02 01:07:17;;;;;;;17.57;9.63;;;5.70;99.90;;;;;;5056694;28;20652;-76
2021/03/02 01:09:43;;;;;;;21.67;10.77;;;5.70;99.90;;;;;;5076704;28;20218;-75
2021/03/02 01:12:10;;;;;;;20.00;10.13;;;5.60;99.90;;;;;;5049400;28;20194;-76
2021/03/02 01:14:37;;;;;;;19.50;11.17;;;5.50;99.90;;;;;;5064262;28;20199;-76
2021/03/02 01:17:05;;;;;;;20.13;11.17;;;5.40;99.90;;;;;;5066733;28;20338;-76
2021/03/02 01:19:31;;;;;;;20.70;10.87;;;5.30;99.90;;;;;;5050756;28;20267;-76
2021/03/02 01:21:58;;;;;;;17.30;10.03;;;5.30;99.90;;;;;;5064956;28;20221;-75
2021/03/02 01:24:24;;;;;;;19.53;10.00;;;5.20;99.90;;;;;;5063775;28;20203;-75
2021/03/02 01:26:51;;;;;;;23.60;11.40;;;5.10;99.90;;;;;;5064479;28;20207;-75
2021/03/02 01:29:17;;;;;;;25.73;11.20;;;5.00;99.90;;;;;;5067551;28;20219;-75
2021/03/02 01:31:44;;;;;;;24.10;12.20;;;5.00;99.90;;;;;;5064840;28;20264;-75
2021/03/02 01:34:10;;;;;;;22.20;11.83;;;5.10;99.90;;;;;;5063362;28;20258;-75
2021/03/02 01:36:37;;;;;;;19.80;11.23;;;5.10;99.90;;;;;;5050080;28;20295;-76
2021/03/02 01:39:03;;;;;;;21.90;10.97;;;5.20;99.90;;;;;;5049162;28;20295;-75
2021/03/02 01:41:30;;;;;;;22.27;11.23;;;5.30;99.90;;;;;;5069905;28;20195;-76
2021/03/02 01:43:56;;;;;;;20.13;10.97;;;5.40;99.90;;;;;;5053100;28;20199;-76
2021/03/02 01:46:22;;;;;;;18.17;11.10;;;5.30;99.90;;;;;;5056692;28;20203;-76
2021/03/02 01:48:49;;;;;;;18.43;10.50;;;5.20;99.90;;;;;;5048704;28;20234;-76
2021/03/02 01:51:15;;;;;;;21.90;10.40;;;5.20;99.90;;;;;;5065540;28;20223;-77
2021/03/02 01:53:41;;;;;;;19.03;10.87;;;5.20;99.90;;;;;;5050514;28;20199;-76
2021/03/02 01:56:08;;;;;;;18.70;10.07;;;5.20;99.90;;;;;;5064214;28;20192;-76
2021/03/02 01:58:34;;;;;;;19.57;10.43;;;5.10;99.90;;;;;;5050772;28;20540;-76
2021/03/02 02:01:08;;;;;;;22.93;12.03;;;5.00;99.90;;;;;;5051181;28;20205;-76
2021/03/02 02:03:44;;;;;;;19.10;10.77;;;5.00;99.90;;;;;;5062447;28;20332;-77
2021/03/02 02:06:16;;;;;;;20.30;10.80;;;5.00;99.90;;;;;;5059977;28;20718;-76
2021/03/02 02:09:13;;;;;;;19.43;10.73;;;5.00;99.90;;;;;;5080433;28;20216;-76
2021/03/02 02:12:05;;;;;;;24.30;11.40;;;5.00;99.90;;;;;;5072318;28;20249;-76
2021/03/02 02:14:54;;;;;;;19.77;11.50;;;4.90;99.90;;;;;;5067404;28;20201;-76
2021/03/02 02:17:48;;;;;;;20.77;11.00;;;4.80;99.90;;;;;;5069955;28;20684;-76
2021/03/02 02:20:41;;;;;;;21.17;10.63;;;4.80;99.90;;;;;;5061003;28;20286;-76
2021/03/02 02:23:28;;;;;;;22.10;10.07;;;4.90;99.90;;;;;;5068891;28;20207;-76
2021/03/02 02:26:01;;;;;;;20.30;11.13;;;4.80;99.90;;;;;;5064424;28;20210;-76
2021/03/02 02:28:32;;;;;;;16.73;10.70;;;4.80;99.90;;;;;;5068197;28;20207;-76
2021/03/02 02:31:01;;;;;;;22.23;11.10;;;4.80;99.90;;;;;;5070417;28;20314;-76
2021/03/02 02:33:32;;;;;;;20.33;10.27;;;4.90;99.90;;;;;;5068342;28;20275;-76
2021/03/02 02:36:01;;;;;;;22.60;11.60;;;4.90;99.90;;;;;;5067928;28;20206;-76
2021/03/02 02:38:29;;;;;;;26.50;11.77;;;4.90;99.90;;;;;;5056135;28;20203;-76
2021/03/02 02:40:56;;;;;;;18.50;10.40;;;4.90;99.90;;;;;;5084233;28;20249;-76
2021/03/02 02:43:24;;;;;;;16.70;9.90;;;4.90;99.90;;;;;;5069546;28;20220;-76
2021/03/02 02:45:51;;;;;;;18.13;10.27;;;5.00;99.90;;;;;;5072590;28;20270;-76
2021/03/02 02:48:18;;;;;;;23.10;10.73;;;4.80;99.90;;;;;;5066716;28;20355;-76
2021/03/02 02:50:45;;;;;;;18.67;10.60;;;4.90;99.90;;;;;;5053295;28;20203;-76
2021/03/02 02:53:14;;;;;;;19.10;10.80;;;4.90;99.90;;;;;;5063506;28;20243;-76
2021/03/02 02:55:46;;;;;;;18.70;10.60;;;4.90;99.90;;;;;;5069075;28;20208;-76
2021/03/02 02:58:17;;;;;;;23.40;12.27;;;5.00;99.90;;;;;;5069205;28;20208;-76
2021/03/02 03:00:47;;;;;;;22.53;11.37;;;4.80;99.90;;;;;;5069310;28;20294;-76
2021/03/02 03:03:17;;;;;;;20.50;12.07;;;4.80;99.90;;;;;;5059762;28;20270;-76
2021/03/02 03:05:47;;;;;;;23.77;10.73;;;4.70;99.90;;;;;;5069280;28;20300;-76
2021/03/02 03:08:21;;;;;;;20.43;11.47;;;4.60;99.90;;;;;;5069835;28;20210;-76
2021/03/02 03:10:49;;;;;;;21.33;10.53;;;4.50;99.90;;;;;;5068184;28;20572;-76
2021/03/02 03:13:23;;;;;;;22.83;10.83;;;4.60;99.90;;;;;;5061675;28;20911;-77
2021/03/02 03:15:59;;;;;;;26.07;10.83;;;4.40;99.90;;;;;;5067931;28;20203;-77
2021/03/02 03:18:31;;;;;;;22.70;11.73;;;4.30;99.90;;;;;;5069908;28;20911;-76
2021/03/02 03:20:59;;;;;;;21.60;11.87;;;4.30;99.90;;;;;;5068893;28;20232;-76
2021/03/02 03:23:26;;;;;;;24.30;11.20;;;4.20;99.90;;;;;;5085529;28;20348;-75
2021/03/02 03:25:53;;;;;;;21.37;11.97;;;4.20;99.90;;;;;;5064809;28;20215;-76
2021/03/02 03:28:21;;;;;;;26.03;11.10;;;4.20;99.90;;;;;;5053157;28;20281;-76
2021/03/02 03:30:49;;;;;;;17.50;10.90;;;4.10;99.90;;;;;;5065097;28;20648;-76
2021/03/02 03:33:18;;;;;;;25.83;11.67;;;4.20;99.90;;;;;;5067563;28;20294;-77
2021/03/02 03:35:45;;;;;;;26.33;11.87;;;4.10;99.90;;;;;;5066839;28;20348;-76
2021/03/02 03:38:11;;;;;;;22.23;10.87;;;4.10;99.90;;;;;;5049042;28;20233;-77
2021/03/02 03:40:38;;;;;;;20.57;11.00;;;4.20;99.90;;;;;;5039166;28;20215;-76
2021/03/02 03:43:05;;;;;;;20.57;11.53;;;4.20;99.90;;;;;;5067019;28;20204;-76
2021/03/02 03:45:31;;;;;;;19.47;11.80;;;4.20;99.90;;;;;;5050750;28;20196;-76
2021/03/02 03:47:58;;;;;;;25.17;11.03;;;4.20;99.90;;;;;;5048057;28;20256;-76
2021/03/02 03:50:24;;;;;;;19.00;11.23;;;4.20;99.90;;;;;;5066568;28;20284;-77
2021/03/02 03:52:55;;;;;;;24.13;12.20;;;4.20;99.90;;;;;;5068030;28;20254;-76
2021/03/02 03:55:26;;;;;;;24.83;11.97;;;4.20;99.90;;;;;;5068466;28;20250;-76
2021/03/02 03:57:54;;;;;;;24.13;12.60;;;4.40;99.90;;;;;;5083193;28;20682;-76
2021/03/02 04:00:21;;;;;;;20.07;9.70;;;4.30;99.90;;;;;;5043819;28;20232;-76
2021/03/02 04:02:49;;;;;;;24.90;12.20;;;4.40;99.90;;;;;;5066312;28;20204;-76
2021/03/02 04:05:17;;;;;;;24.10;11.43;;;4.50;99.90;;;;;;5070068;28;20205;-76
2021/03/02 04:07:45;;;;;;;20.23;10.13;;;4.50;99.90;;;;;;5046522;28;20217;-75
2021/03/02 04:10:12;;;;;;;22.57;11.37;;;4.50;99.90;;;;;;5066122;28;20718;-76
2021/03/02 04:12:40;;;;;;;19.90;11.03;;;4.50;99.90;;;;;;5048072;28;20200;-76
2021/03/02 04:15:26;;;;;;;20.97;10.47;;;4.60;99.90;;;;;;5042092;28;20198;-76
2021/03/02 04:17:57;;;;;;;18.70;10.70;;;4.60;99.90;;;;;;5048932;28;20331;-76
2021/03/02 04:20:24;;;;;;;24.60;11.70;;;4.40;99.90;;;;;;5081820;28;20205;-75
2021/03/02 04:22:51;;;;;;;22.20;11.80;;;4.50;99.90;;;;;;5067349;28;20209;-75
2021/03/02 04:25:17;;;;;;;25.37;11.73;;;4.60;99.90;;;;;;5063830;28;20305;-75
2021/03/02 04:27:43;;;;;;;18.40;10.13;;;4.50;99.90;;;;;;5050879;28;20206;-75
2021/03/02 04:30:11;;;;;;;20.93;11.17;;;4.50;99.90;;;;;;5060778;28;20197;-75
2021/03/02 04:32:38;;;;;;;22.20;11.27;;;4.40;99.90;;;;;;5050399;28;20199;-76
2021/03/02 04:35:05;;;;;;;20.57;10.97;;;4.20;99.90;;;;;;5063978;28;21674;-75
2021/03/02 04:37:31;;;;;;;21.83;11.67;;;4.20;99.90;;;;;;5048960;28;20254;-75
2021/03/02 04:39:58;;;;;;;24.03;11.20;;;4.10;99.90;;;;;;5064020;28;20215;-75
2021/03/02 04:42:24;;;;;;;23.60;11.27;;;4.10;99.90;;;;;;5048512;28;20484;-75
2021/03/02 04:44:50;;;;;;;24.93;11.43;;;4.10;99.90;;;;;;5063853;28;20413;-75
2021/03/02 04:47:17;;;;;;;22.00;11.73;;;4.20;99.90;;;;;;5056270;28;20659;-75
2021/03/02 04:49:43;;;;;;;19.50;10.70;;;4.20;99.90;;;;;;5060160;28;20373;-75
2021/03/02 04:52:09;;;;;;;24.37;12.27;;;4.10;99.90;;;;;;5053976;28;20687;-75
2021/03/02 04:54:36;;;;;;;20.00;11.10;;;4.10;99.90;;;;;;5049575;28;20223;-75
2021/03/02 04:57:02;;;;;;;21.83;9.53;;;4.20;99.90;;;;;;5060322;28;20253;-75
2021/03/02 04:59:28;;;;;;;20.43;11.13;;;4.20;99.90;;;;;;5063573;28;20637;-75
2021/03/02 05:01:55;;;;;;;25.60;11.00;;;4.20;99.90;;;;;;5052038;28;20232;-75
2021/03/02 05:04:21;;;;;;;21.80;12.50;;;4.20;99.90;;;;;;5050298;28;20208;-75
2021/03/02 05:06:48;;;;;;;20.80;11.33;;;4.30;99.90;;;;;;5063561;28;20302;-75
2021/03/02 05:09:14;;;;;;;21.70;11.13;;;4.30;99.90;;;;;;5061502;28;20216;-75
2021/03/02 05:11:40;;;;;;;26.17;11.93;;;4.20;99.90;;;;;;5049324;28;20259;-76
2021/03/02 05:14:07;;;;;;;22.80;11.43;;;4.20;99.90;;;;;;5071230;28;20196;-75
2021/03/02 05:16:33;;;;;;;24.57;11.97;;;4.20;99.90;;;;;;5066485;28;20307;-75
2021/03/02 05:19:00;;;;;;;20.40;11.73;;;4.30;99.90;;;;;;5062437;28;20208;-75
2021/03/02 05:21:26;;;;;;;20.87;10.17;;;4.30;99.90;;;;;;5077968;28;20211;-75
2021/03/02 05:23:52;;;;;;;24.00;11.20;;;4.30;99.90;;;;;;5048582;28;20558;-75
2021/03/02 05:26:21;;;;;;;19.10;11.70;;;4.20;99.90;;;;;;5063339;28;20259;-75
2021/03/02 05:28:50;;;;;;;19.90;11.60;;;4.30;99.90;;;;;;5036480;28;20307;-76
2021/03/02 05:31:19;;;;;;;19.40;10.00;;;4.30;99.90;;;;;;5038012;28;20200;-74
2021/03/02 05:33:45;;;;;;;20.33;10.47;;;4.30;99.90;;;;;;5053526;28;20302;-74
2021/03/02 05:36:12;;;;;;;20.03;10.77;;;4.20;99.90;;;;;;5049099;28;20456;-75
2021/03/02 05:38:38;;;;;;;19.03;12.63;;;4.20;99.90;;;;;;5064141;28;20521;-75
2021/03/02 05:41:07;;;;;;;17.57;11.53;;;4.30;99.90;;;;;;5045798;28;20210;-77
2021/03/02 05:43:35;;;;;;;22.93;12.70;;;4.30;99.90;;;;;;5062571;28;20206;-77
2021/03/02 05:46:02;;;;;;;22.37;12.43;;;4.30;99.90;;;;;;5062237;28;20205;-77
2021/03/02 05:48:29;;;;;;;22.17;10.13;;;4.30;99.90;;;;;;5064703;28;20258;-77
2021/03/02 05:50:56;;;;;;;19.73;10.93;;;4.20;99.90;;;;;;5048410;28;20305;-74
2021/03/02 05:53:23;;;;;;;21.33;11.33;;;4.20;99.90;;;;;;5048036;28;20204;-77
2021/03/02 05:55:50;;;;;;;21.00;11.13;;;4.20;99.90;;;;;;5052760;28;20209;-75
2021/03/02 05:58:17;;;;;;;21.40;11.67;;;4.20;99.90;;;;;;5070021;28;20199;-75
2021/03/02 06:00:44;;;;;;;18.87;11.13;;;4.30;99.90;;;;;;5061300;28;20237;-75
2021/03/02 06:03:11;;;;;;;18.23;10.27;;;4.20;99.90;;;;;;5052586;28;20244;-75
2021/03/02 06:05:38;;;;;;;20.13;11.00;;;4.20;99.90;;;;;;5048496;28;20203;-74
2021/03/02 06:08:07;;;;;;;20.53;10.00;;;4.10;99.90;;;;;;5063725;28;20229;-74
2021/03/02 06:10:35;;;;;;;22.27;12.07;;;4.20;99.90;;;;;;5070566;28;20279;-75
2021/03/02 06:13:02;;;;;;;22.27;10.73;;;4.10;99.90;;;;;;5068900;28;20269;-77
2021/03/02 06:15:29;;;;;;;18.73;10.83;;;4.10;99.90;;;;;;5068044;28;20267;-75
2021/03/02 06:18:18;;;;;;;21.60;11.10;;;4.20;99.90;;;;;;5067905;28;20318;-75
2021/03/02 06:20:45;;;;;;;23.40;10.93;;;4.20;99.90;;;;;;5068585;28;20283;-75
2021/03/02 06:23:23;;;;;;;22.07;10.77;;;4.10;99.90;;;;;;5068052;28;20204;-77
2021/03/02 06:25:55;;;;;;;19.30;10.53;;;4.10;99.90;;;;;;5067335;28;20211;-77
2021/03/02 06:28:44;;;;;;;21.00;10.73;;;4.10;99.90;;;;;;5071850;28;20241;-77
2021/03/02 06:31:41;;;;;;;17.90;10.83;;;4.10;99.90;;;;;;5066055;28;20513;-76
2021/03/02 06:34:18;;;;;;;18.50;10.73;;;4.10;99.90;;;;;;5066658;28;20222;-76
2021/03/02 06:36:54;;;;;;;20.70;11.30;;;4.10;99.90;;;;;;5058362;28;20237;-78
2021/03/02 06:39:29;;;;;;;24.53;10.93;;;4.20;99.90;;;;;;5058392;28;20210;-76
2021/03/02 06:42:18;;;;;;;18.83;10.37;;;4.20;99.90;;;;;;5070651;28;20203;-75
2021/03/02 06:44:49;;;;;;;20.50;10.80;;;4.10;99.90;;;;;;5089515;28;20224;-75
2021/03/02 06:47:32;;;;;;;17.30;9.67;;;4.10;99.90;;;;;;5081989;28;20375;-75
2021/03/02 06:50:01;;;;;;;17.93;10.67;;;4.20;99.90;;;;;;5076888;28;20653;-75
2021/03/02 06:52:37;;;;;;;20.87;11.27;;;4.20;99.90;;;;;;5069268;28;20239;-76
2021/03/02 06:55:20;;;;;;;20.27;10.83;;;4.30;99.90;;;;;;5067461;28;20646;-75
2021/03/02 06:57:49;;;;;;;20.67;10.47;;;4.30;99.90;;;;;;5078121;28;20204;-75
2021/03/02 07:00:29;;;;;;;22.63;11.10;;;4.40;99.90;;;;;;5047700;28;20337;-76
2021/03/02 07:02:55;;;;;;;18.97;10.07;;;4.50;99.90;;;;;;5056195;28;20569;-75
2021/03/02 07:05:22;;;;;;;20.00;11.33;;;4.50;99.90;;;;;;5054207;28;20204;-74
2021/03/02 07:07:57;;;;;;;19.07;10.53;;;4.70;99.90;;;;;;5066258;28;20236;-75
2021/03/02 07:10:24;;;;;;;22.60;11.17;;;4.60;99.90;;;;;;5060902;28;20302;-78
2021/03/02 07:12:55;;;;;;;17.63;10.30;;;4.50;99.90;;;;;;5068497;28;20205;-76
2021/03/02 07:15:24;;;;;;;22.43;10.73;;;4.60;99.90;;;;;;5067441;28;20218;-76
2021/03/02 07:17:54;;;;;;;19.27;11.30;;;4.70;99.90;;;;;;5065893;28;20281;-78
2021/03/02 07:20:25;;;;;;;19.97;10.60;;;4.60;99.90;;;;;;5062975;28;20612;-79
2021/03/02 07:22:53;;;;;;;20.77;10.53;;;4.60;99.90;;;;;;5060905;28;20238;-76
2021/03/02 07:25:22;;;;;;;23.37;11.17;;;4.60;99.90;;;;;;5050534;28;20213;-77
2021/03/02 07:27:52;;;;;;;18.77;10.23;;;4.60;99.90;;;;;;5068409;28;20232;-77
2021/03/02 07:30:19;;;;;;;21.17;11.20;;;4.80;99.90;;;;;;5070624;28;20381;-77
2021/03/02 07:32:47;;;;;;;19.27;10.87;;;5.00;99.90;;;;;;5072618;28;20313;-78
2021/03/02 07:35:23;;;;;;;22.43;10.27;;;5.10;99.90;;;;;;5064439;28;20211;-75
2021/03/02 07:37:50;;;;;;;21.77;10.83;;;5.20;99.90;;;;;;5072254;28;20328;-73
2021/03/02 07:40:19;;;;;;;21.20;10.90;;;5.30;83.70;;;;;;5051235;28;20305;-73
2021/03/02 07:42:45;;;;;;;18.43;9.93;;;5.50;99.90;;;;;;5063498;28;20668;-73
2021/03/02 07:45:18;;;;;;;19.53;11.07;;;5.60;49.10;;;;;;5052076;28;20226;-72
2021/03/02 07:47:58;;;;;;;17.87;10.03;;;5.70;15.40;;;;;;5054405;28;20635;-73
2021/03/02 07:50:29;;;;;;;20.53;9.90;;;5.90;1.00;;;;;;5062132;28;20228;-75
2021/03/02 07:53:19;;;;;;;24.57;9.37;;;6.00;1.00;;;;;;5062679;28;20191;-73
2021/03/02 07:55:46;;;;;;;16.40;9.37;;;6.40;1.00;;;;;;5073394;28;20238;-75
2021/03/02 07:58:22;;;;;;;17.33;9.83;;;6.50;1.00;;;;;;5060911;28;20209;-75
2021/03/02 08:00:50;;;;;;;16.67;9.83;;;6.60;1.00;;;;;;5046046;28;20217;-73
2021/03/02 08:03:20;;;;;;;20.33;10.37;;;6.80;1.00;;;;;;5074803;28;20204;-73
2021/03/02 08:05:48;;;;;;;21.00;10.23;;;6.90;1.00;;;;;;5061198;28;21065;-74
2021/03/02 08:08:24;;;;;;;15.03;8.90;;;7.00;1.00;;;;;;5072700;28;20242;-73
2021/03/02 08:10:54;;;;;;;19.93;9.30;;;7.00;1.00;;;;;;5078680;28;20229;-73
2021/03/02 08:13:35;;;;;;;14.10;9.37;;;7.20;1.00;;;;;;5062576;28;20209;-74
2021/03/02 08:16:06;;;;;;;16.83;9.13;;;7.50;1.00;;;;;;5057513;28;20515;-74
2021/03/02 08:18:34;;;;;;;15.00;9.33;;;7.80;1.00;;;;;;5031756;28;20204;-73
2021/03/02 08:21:12;;;;;;;13.40;9.07;;;7.70;1.00;;;;;;5041447;28;20203;-74
2021/03/02 08:23:58;;;;;;;14.50;8.57;;;8.00;1.00;;;;;;5036056;28;20208;-73
2021/03/02 08:26:32;;;;;;;16.07;9.73;;;8.20;99.90;;;;;;5040459;28;20214;-73
2021/03/02 08:29:15;;;;;;;14.43;9.47;;;8.30;99.90;;;;;;5040444;28;20227;-73
2021/03/02 08:31:48;;;;;;;23.37;9.40;;;8.70;99.90;;;;;;5042774;28;20200;-72
2021/03/02 08:34:16;;;;;;;15.87;9.30;;;8.90;1.00;;;;;;5038778;28;20204;-72
2021/03/02 08:36:48;;;;;;;15.33;9.37;;;9.30;99.90;;;;;;5036409;28;20279;-73
2021/03/02 08:39:21;;;;;;;15.37;8.40;;;9.60;99.90;;;;;;5072021;27;20554;-75
2021/03/02 08:41:49;;;;;;;11.67;8.27;;;9.90;1.00;;;;;;5035361;28;20688;-73
2021/03/02 08:44:20;;;;;;;12.43;8.23;;;9.80;99.90;;;;;;5048778;28;20227;-74
2021/03/02 08:46:56;;;;;;;13.07;7.93;;;10.00;99.90;;;;;;5050976;28;20218;-74
2021/03/02 08:49:25;;;;;;;12.77;8.17;;;10.30;1.00;;;;;;5046254;28;20205;-74
2021/03/02 08:52:01;;;;;;;14.17;7.63;;;10.30;2.20;;;;;;5057576;28;20209;-72
2021/03/02 08:54:28;;;;;;;13.20;8.73;;;10.10;1.00;;;;;;5058951;28;20206;-72
2021/03/02 08:57:04;;;;;;;14.33;8.00;;;10.50;1.00;;;;;;5056494;28;20235;-74
2021/03/02 08:59:32;;;;;;;11.53;7.93;;;10.80;1.00;;;;;;5055632;28;20224;-75
2021/03/02 09:01:59;;;;;;;12.80;8.80;;;11.40;99.90;;;;;;5060922;28;20202;-72
2021/03/02 09:04:35;;;;;;;19.53;9.27;;;11.50;99.90;;;;;;5075468;28;20292;-75
2021/03/02 09:07:01;;;;;;;14.93;7.70;;;11.60;1.00;;;;;;5056968;28;20200;-73
2021/03/02 09:09:29;;;;;;;10.53;7.23;;;11.30;1.00;;;;;;5042268;28;20257;-73
2021/03/02 09:11:58;;;;;;;20.00;7.70;;;11.80;99.90;;;;;;5042298;28;21713;-75
2021/03/02 09:14:36;;;;;;;13.23;6.97;;;12.00;1.00;;;;;;5059262;28;20309;-74
2021/03/02 09:17:07;;;;;;;13.97;7.60;;;12.30;1.00;;;;;;5069155;28;20950;-73
2021/03/02 09:19:41;;;;;;;14.47;7.97;;;11.80;99.90;;;;;;5038755;28;20627;-74
2021/03/02 09:22:16;;;;;;;11.67;7.07;;;12.10;1.00;;;;;;5055421;28;20226;-73
2021/03/02 09:24:53;;;;;;;13.63;7.53;;;12.60;99.90;;;;;;5059240;28;20294;-73
2021/03/02 09:27:21;;;;;;;13.97;7.20;;;12.50;99.90;;;;;;5055857;28;20203;-74
2021/03/02 09:29:51;;;;;;;10.77;7.63;;;12.50;99.90;;;;;;5060727;28;20208;-73
2021/03/02 09:32:32;;;;;;;14.27;8.10;;;12.70;99.90;;;;;;5051479;28;20336;-73
2021/03/02 09:35:02;;;;;;;12.87;7.20;;;12.90;99.90;;;;;;5058584;28;20196;-74
2021/03/02 09:37:29;;;;;;;13.07;7.17;;;13.50;1.00;;;;;;5052509;28;20398;-73
2021/03/02 09:39:55;;;;;;;12.63;8.00;;;13.50;1.00;;;;;;5061036;28;20215;-73
2021/03/02 09:42:25;;;;;;;11.27;7.53;;;13.40;1.00;;;;;;5071896;28;20580;-73
2021/03/02 09:44:54;;;;;;;12.23;8.33;;;13.40;1.00;;;;;;5048478;28;20258;-73
2021/03/02 09:47:35;;;;;;;10.37;7.73;;;13.10;1.00;;;;;;5055866;28;20350;-71
2021/03/02 09:50:03;;;;;;;9.80;7.00;;;13.20;1.00;;;;;;5046175;28;20241;-72
2021/03/02 09:52:33;;;;;;;11.93;7.20;;;13.00;99.90;;;;;;5047995;28;20227;-72
2021/03/02 09:55:18;;;;;;;9.83;7.60;;;13.20;1.00;;;;;;5042066;28;20229;-74
2021/03/02 09:57:59;;;;;;;12.63;7.60;;;13.00;91.00;;;;;;5054317;28;20233;-72
2021/03/02 10:00:27;;;;;;;10.87;7.33;;;13.10;1.00;;;;;;5042363;28;20197;-73
2021/03/02 10:03:19;;;;;;;9.10;7.47;;;13.20;1.00;;;;;;5042251;28;20208;-73
2021/03/02 10:05:51;;;;;;;11.23;7.37;;;13.10;1.00;;;;;;5041613;28;20681;-72
2021/03/02 10:08:38;;;;;;;12.10;7.50;;;13.30;1.00;;;;;;5043223;28;20209;-73
2021/03/02 10:11:11;;;;;;;12.23;7.27;;;13.70;1.00;;;;;;5045012;28;20287;-72
2021/03/02 10:13:47;;;;;;;11.07;7.43;;;14.00;1.00;;;;;;5055686;28;20226;-73
2021/03/02 10:16:30;;;;;;;11.10;7.53;;;13.90;1.00;;;;;;5045063;28;20211;-74
2021/03/02 10:19:01;;;;;;;10.73;7.77;;;14.20;1.00;;;;;;5044554;28;20335;-74
2021/03/02 10:21:30;;;;;;;10.83;7.53;;;14.50;1.00;;;;;;5055300;28;20250;-73
2021/03/02 10:23:59;;;;;;;11.40;6.50;;;14.20;1.00;;;;;;5044829;28;20200;-76
2021/03/02 10:26:30;;;;;;;10.37;6.90;;;13.90;1.00;;;;;;5058374;28;20548;-74
2021/03/02 10:28:57;;;;;;;12.30;7.27;;;14.10;1.00;;;;;;5055031;28;20668;-74
2021/03/02 10:31:24;;;;;;;7.60;6.17;;;14.20;1.00;;;;;;5057147;28;20700;-74
2021/03/02 10:33:51;;;;;;;15.10;8.03;;;13.90;1.00;;;;;;5046454;28;20294;-76
2021/03/02 10:36:24;;;;;;;12.33;7.50;;;13.90;1.00;;;;;;5055765;28;20295;-74
2021/03/02 10:38:51;;;;;;;10.80;6.90;;;14.20;1.00;;;;;;5046752;28;20257;-75
2021/03/02 10:41:21;;;;;;;8.17;6.33;;;14.10;1.00;;;;;;5041028;28;20203;-74
2021/03/02 10:43:50;;;;;;;10.50;6.80;;;14.40;1.00;;;;;;5042031;28;20294;-73
2021/03/02 10:46:18;;;;;;;10.00;6.67;;;14.40;1.00;;;;;;5043553;28;20647;-75
2021/03/02 10:48:46;;;;;;;12.07;7.27;;;14.10;1.00;;;;;;5042592;28;20222;-75
2021/03/02 10:51:14;;;;;;;10.83;7.13;;;14.30;1.00;;;;;;5041217;28;20318;-75
2021/03/02 10:53:40;;;;;;;9.60;6.57;;;14.20;1.00;;;;;;5054571;28;20211;-74
2021/03/02 10:56:08;;;;;;;11.77;7.10;;;14.30;1.00;;;;;;5045213;28;20211;-73
2021/03/02 10:58:34;;;;;;;9.30;7.17;;;14.50;1.00;;;;;;5037633;28;20305;-74
2021/03/02 11:01:03;;;;;;;10.33;6.90;;;14.70;1.00;;;;;;5042599;28;20283;-75
2021/03/02 11:03:30;;;;;;;10.43;6.80;;;13.70;1.00;;;;;;5027330;28;20207;-72
2021/03/02 11:05:56;;;;;;;9.87;6.93;;;14.30;1.00;;;;;;5057399;28;20326;-73
2021/03/02 11:08:23;;;;;;;10.83;7.13;;;14.30;1.00;;;;;;5042695;28;20834;-73
2021/03/02 11:10:50;;;;;;;10.07;6.90;;;14.10;1.00;;;;;;5041924;28;20203;-75
2021/03/02 11:13:17;;;;;;;12.57;6.60;;;14.50;1.00;;;;;;5040097;28;20675;-74
2021/03/02 11:15:44;;;;;;;12.30;7.27;;;14.80;1.00;;;;;;5043965;28;20214;-75
2021/03/02 11:18:11;;;;;;;9.90;7.47;;;14.80;1.00;;;;;;5041536;28;20220;-74
2021/03/02 11:20:44;;;;;;;10.57;7.57;;;14.90;1.00;;;;;;5038625;28;23104;-74
2021/03/02 11:23:13;;;;;;;11.07;7.97;;;15.30;1.00;;;;;;5058079;28;20282;-74
2021/03/02 11:25:40;;;;;;;10.77;8.13;;;15.10;1.00;;;;;;5042676;28;20204;-73
2021/03/02 11:28:08;;;;;;;11.73;7.93;;;15.10;1.00;;;;;;5031571;28;20219;-73
2021/03/02 11:30:34;;;;;;;13.60;9.27;;;15.30;1.00;;;;;;5034361;28;20231;-74
2021/03/02 11:33:01;;;;;;;10.70;8.00;;;15.30;1.00;;;;;;5044774;28;20253;-75
2021/03/02 11:35:28;;;;;;;13.13;9.23;;;15.50;1.00;;;;;;5041233;28;20204;-75
2021/03/02 11:37:56;;;;;;;13.57;8.60;;;15.60;1.00;;;;;;5043637;28;20254;-71
2021/03/02 11:40:23;;;;;;;13.20;8.00;;;15.80;1.00;;;;;;5053687;28;20273;-72
2021/03/02 11:42:52;;;;;;;12.93;8.13;;;15.80;1.00;;;;;;5033397;28;20660;-72
2021/03/02 11:45:21;;;;;;;11.37;8.30;;;15.80;1.00;;;;;;5054107;28;20273;-74
2021/03/02 11:47:48;;;;;;;9.40;7.40;;;15.80;1.00;;;;;;5054047;28;20304;-76
2021/03/02 11:50:16;;;;;;;9.80;7.37;;;16.00;1.00;;;;;;5043319;28;20215;-75
2021/03/02 11:52:44;;;;;;;12.73;8.77;;;16.20;1.00;;;;;;5058000;28;20208;-73
2021/03/02 11:55:11;;;;;;;14.77;8.37;;;16.30;1.00;;;;;;5052257;28;20823;-71
2021/03/02 11:57:38;;;;;;;11.07;7.83;;;16.60;1.00;;;;;;5035821;28;20539;-72
2021/03/02 12:00:14;;;;;;;12.07;8.43;;;16.70;1.00;;;;;;5035867;28;21148;-73
2021/03/02 12:02:40;;;;;;;12.37;8.00;;;16.90;99.90;;;;;;5044736;28;20582;-73
2021/03/02 12:05:07;;;;;;;10.87;7.33;;;17.10;99.90;;;;;;5037959;28;20218;-75
2021/03/02 12:07:35;;;;;;;10.43;7.73;;;17.20;99.90;;;;;;5043250;28;20981;-73
2021/03/02 12:10:04;;;;;;;11.83;8.00;;;17.50;99.90;;;;;;5055415;28;20539;-73
2021/03/02 12:12:31;;;;;;;12.40;7.97;;;17.60;99.90;;;;;;5040771;28;20502;-72
2021/03/02 12:14:57;;;;;;;15.13;8.57;;;17.70;99.90;;;;;;5042330;28;20257;-72
2021/03/02 12:17:23;;;;;;;13.47;8.50;;;17.50;99.90;;;;;;5042988;28;20491;-73
2021/03/02 12:19:50;;;;;;;11.23;7.90;;;17.90;99.90;;;;;;5040124;28;20568;-73
2021/03/02 12:22:16;;;;;;;11.97;8.03;;;17.90;99.90;;;;;;5041585;28;20203;-73
2021/03/02 12:24:43;;;;;;;11.37;8.10;;;17.90;99.90;;;;;;5041932;28;20204;-71
2021/03/02 12:27:10;;;;;;;10.53;8.17;;;18.20;99.90;;;;;;5039532;28;20201;-72
2021/03/02 12:29:37;;;;;;;12.90;7.87;;;18.60;99.90;;;;;;5036426;28;20205;-73
2021/03/02 12:32:05;;;;;;;10.03;8.23;;;17.60;99.90;;;;;;5033166;28;20963;-74
2021/03/02 12:34:31;;;;;;;10.53;7.57;;;18.00;99.90;;;;;;5052103;28;20205;-73
2021/03/02 12:36:57;;;;;;;8.33;6.70;;;18.30;99.90;;;;;;5051073;28;20237;-73
2021/03/02 12:39:24;;;;;;;11.43;7.70;;;18.10;99.90;;;;;;5019574;28;21193;-71
2021/03/02 12:41:50;;;;;;;11.87;7.90;;;18.50;99.90;;;;;;5041041;28;20634;-72
2021/03/02 12:44:16;;;;;;;12.27;7.80;;;19.20;99.90;;;;;;5039488;28;20550;-71
2021/03/02 12:46:43;;;;;;;10.93;7.57;;;18.80;99.90;;;;;;5036976;28;20265;-73
2021/03/02 12:49:10;;;;;;;13.60;8.43;;;18.60;99.90;;;;;;5052569;28;20345;-72
2021/03/02 12:51:39;;;;;;;12.63;8.17;;;18.80;99.90;;;;;;5034090;28;20676;-72
2021/03/02 12:54:05;;;;;;;13.03;8.37;;;18.70;99.90;;;;;;5040034;28;20209;-72